Pilot Magazine UKGA

About You

Log In Register UKGA membership

Flight planning

Flight planning New flightplan NOTAM map LARS map & NOTAMs Danger area, mil. & TRA activations Weather map GPS route download Find waypoints Your waypoints New waypoint

Forums

Forums Currently discussing "ukga adverts"

Other items

Articles Events Links News Surveys Tips Other users Feedback UKGA membership About UKGA

TAFs

UK

TAF EGAA 131054Z 1312/1412 08006KT CAVOK PROB30 1402/1407 8000 PROB30 
      TEMPO 1407/1412 6000 SHRA
      
TAF EGAC 131057Z 1312/1321 05008KT CAVOK
      
TAF EGAE 131057Z 1312/1317 05006KT CAVOK
      
TAF EGBB 131059Z 1312/1412 07006KT CAVOK
      
TAF EGBJ 131101Z 1312/1319 04006KT CAVOK
      
TAF EGCC 131054Z 1312/1418 09004KT CAVOK
      
TAF EGCK 130805Z 1309/1318 02005KT CAVOK 
      BECMG 1311/1314 27010KT
      
TAF EGCN 131053Z 1312/1412 07005KT CAVOK PROB30 1401/1409 8000 BKN008
      
TAF EGDM 121350Z 1215/1217 12009KT CAVOK
      
TAF EGDR 120737Z 1209/1218 07010KT CAVOK 
      BECMG 1209/1210 10015G25KT
      
TAF EGEC 121358Z 1215/1217 30008KT 9999 FEW020
      
TAF EGEO 131101Z 1312/1317 33003KT CAVOK
      
TAF EGFF 131101Z 1312/1412 06010KT CAVOK 
      BECMG 1312/1315 12004KT
      
TAF EGGD 131101Z 1312/1412 06010KT CAVOK 
      BECMG 1315/1318 17008KT
      
TAF EGGP 131054Z 1312/1412 10007KT CAVOK
      
TAF EGGW 131100Z 1312/1412 05008KT CAVOK 
      BECMG 1312/1314 14012KT 
      BECMG 1403/1406 03005KT
      
TAF EGHC 131059Z 1312/1318 11013KT CAVOK 
      BECMG 1314/1317 VRB03KT
      
TAF EGHE 131059Z 1312/1318 08010KT CAVOK 
      BECMG 1315/1318 02005KT
      
TAF EGHH 131101Z 1312/1321 16010KT CAVOK 
      BECMG 1318/1321 VRB03KT
      
TAF EGHI 131101Z 1312/1321 12005KT CAVOK
      
TAF EGHQ 131059Z 1312/1321 09010KT CAVOK 
      BECMG 1317/1320 VRB02KT
      
TAF EGJA 131058Z 1312/1321 08010KT CAVOK
      
TAF EGJB 131058Z 1312/1321 VRB05KT CAVOK 
      BECMG 1313/1315 05011KT
      
TAF EGJJ 131058Z 1312/1321 VRB04KT CAVOK 
      BECMG 1312/1315 36010KT 
      BECMG 1316/1318 07013KT
      
TAF EGKA 131057Z 1312/1320 14009KT CAVOK
      
TAF EGKB 131057Z 1312/1321 15009KT CAVOK
      
TAF EGKK 131053Z 1312/1418 10009KT CAVOK
      
TAF EGLC 130758Z 1309/1313 09007KT CAVOK
      
TAF EGLF 131057Z 1312/1320 09007KT CAVOK
      
TAF EGLL 131057Z 1312/1418 12010KT CAVOK 
      BECMG 1323/1402 06005KT 
      BECMG 1414/1417 16012KT
      
TAF EGMC 131057Z 1312/1321 10011KT CAVOK
      
TAF EGMD 131057Z 1312/1321 08010KT CAVOK
      
TAF EGNH 131057Z 1312/1320 10009KT CAVOK
      
TAF EGNJ 131057Z 1312/1321 07009KT CAVOK
      
TAF EGNM 131053Z 1312/1412 08008KT CAVOK 
      TEMPO 1401/1409 8000 BKN004 PROB30 1403/1409 4000 BR
      
TAF EGNO 121356Z 1215/1218 09008KT CAVOK PROB30 1215/1218 34010KT
      
TAF EGNR 131057Z 1312/1318 13004KT CAVOK
      
TAF EGNS 131100Z 1312/1321 07009KT CAVOK
      
TAF EGNT 131053Z 1312/1412 14004KT CAVOK 
      BECMG 1321/1324 4000 BR BKN005 
      BECMG 1400/1404 0200 FG OVC001 
      BECMG 1406/1409 9999 NSW BKN040
      
TAF EGNV 131057Z 1312/1321 04009KT CAVOK
      
TAF EGNX 131059Z 1312/1412 08007KT CAVOK
      
TAF EGOS 121031Z 1212/1217 VRB05KT CAVOK= TAF EPKS 121100Z 1212/1221 09012KT CAVOK PROB30 
      TEMPO 1217/1221 5000 SHRA BKN035CB
      
TAF EGOV 121345Z 1215/1219 03007KT CAVOK
      
TAF EGOW 121246Z 1212/1218 CNL
      
TAF AMD EGPA 131154Z 1312/1321 16004KT 9999 SCT006 BKN012 PROB40 
      TEMPO 1312/1321 5000 BR BKN004
      
TAF EGPB 131100Z 1312/1321 16005KT 6000 SCT002 OVC004 
      TEMPO 1312/1319 3000 BR BKN001 PROB40 
      TEMPO 1312/1319 1200 PROB40 
      TEMPO 1319/1321 9999 BKN008
      
TAF AMD EGPC 131243Z 1312/1321 13006KT 9999 SCT002 
      TEMPO 1312/1318 2000 BR BKN001 
      BECMG 1318/1321 3000 BR BKN003
      
TAF EGPD 131058Z 1312/1412 15008KT CAVOK PROB30 
      TEMPO 1317/1320 BKN008 
      BECMG 1320/1323 BKN008 
      TEMPO 1321/1408 BKN006 PROB30 
      TEMPO 1400/1406 5000 BR OVC003 
      BECMG 1408/1411 FEW008
      
TAF EGPE 131100Z 1312/1321 03006KT 9999 FEW010 
      BECMG 1318/1321 6000 BKN004 PROB40 
      TEMPO 1320/1321 3000 BR
      
TAF AMD EGPF 130026Z 1223/1318 06006KT 6000 SCT007 
      BECMG 1300/1303 BKN007 PROB30 1302/1308 3000 BR BKN004 
      BECMG 1308/1311 CAVOK
      
TAF EGPH 131058Z 1312/1412 06008KT CAVOK 
      BECMG 1321/1324 BKN006 PROB40 1400/1407 4000 BR BKN003 
      BECMG 1407/1411 FEW008
      
TAF EGPI 131125Z 1312/1318 25004KT CAVOK
      
TAF EGPK 131058Z 1312/1412 04006KT CAVOK PROB40 1312/1319 29010KT PROB30 
      TEMPO 1410/1412 5000 SHRA
      
TAF EGPL 131100Z 1312/1315 08005KT 9999 FEW002 SCT020 PROB30 
      TEMPO 1312/1315 BKN006
      
TAF EGPN 131101Z 1312/1315 09006KT 9999 FEW009
      
TAF EGPO 131100Z 1312/1321 07003KT 9999 FEW005 SCT007 
      TEMPO 1312/1321 BKN007 PROB40 
      TEMPO 1312/1321 7000 BKN004
      
TAF EGPU 131101Z 1312/1318 02007KT 9999 FEW002
      
TAF EGQL 131026Z 1312/1321 09007KT 9999 FEW007 PROB30 
      TEMPO 1312/1319 SCT007 
      BECMG 1319/1321 5000 BR OVC004
      
TAF EGQS 131032Z 1312/1406 01007KT 9999 FEW004 PROB40 
      TEMPO 1312/1320 2000 BR SCT004 
      BECMG 1320/1323 5000 BR OVC003 PROB40 1323/1406 0700 FG OVC000
      
TAF EGSC 121354Z 1215/1217 06008KT CAVOK
      
TAF EGSH 131054Z 1312/1321 09010KT CAVOK
      
TAF EGSS 131100Z 1312/1418 12012KT CAVOK 
      BECMG 1402/1405 06006KT 
      BECMG 1410/1413 13012KT
      
TAF EGSY 131101Z 1312/1316 10009KT CAVOK
      
TAF EGTC 131054Z 1312/1318 10008KT CAVOK
      
TAF EGTE 131059Z 1312/1321 09010KT CAVOK 
      BECMG 1316/1319 VRB02KT
      
TAF EGTK 131054Z 1312/1321 09005KT CAVOK
      
TAF EGUB 121319Z 1215/1218 12008KT CAVOK
      
TAF AMD EGUL 121601Z 1216/1319 07010KT 9999 SKC QNH2996INS WND 12010KT AFT 1310 TX32/1313Z TN15/1304Z LAST NO 
      AMDS AFT 1216 NEXT 1510
      
TAF EGUN 131200Z 1312/1418 11010KT 9999 FEW300 QNH2989INS 
      TEMPO 1313/1319 13010G20KT 
      BECMG 1323/1401 11006KT 9000 BR FEW080 SCT300 QNH2982INS 
      TEMPO 1402/1406 10003KT 6000 BR 
      BECMG 1406/1408 11006KT 9999 NSW FEW050 SCT300 QNH2970INS 
      BECMG 1416/1417 13012KT 9999 SCT080 BKN300 QNH2967INS TX34/1314Z TN14/1405Z
      
TAF EGUW 121319Z 1213/1219 CNL
      
TAF AMD EGVA 121530Z 1214/1320 08010G15KT 9999 FEW150 QNH2999INS 
      BECMG 1219/1220 VRB06KT 9999 FEW190 QNH2993INS 
      BECMG 1309/1310 06012KT 9999 FEW200 QNH2995INS TX31/1215Z TN15/1305Z LAST NO 
      AMDS AFT 1216 NEXT 1505
      
TAF EGVN 131029Z 1312/1412 07009KT CAVOK
      
TAF EGVO 121146Z 1212/1224 CNL
      
TAF EGVP 121040Z 1212/1217 08008KT CAVOK
      
TAF EGWU 131036Z 1312/1406 09008KT CAVOK PROB30 1404/1406 7000 BR
      
TAF EGXC 131019Z 1312/1406 07012KT CAVOK PROB30 1403/1406 6000 BR
      
TAF EGXE 121021Z 1212/1217 15006KT CAVOK
      
TAF EGXP 131024Z 1312/1318 08010KT CAVOK
      
TAF EGXT 121037Z 1212/1218 07008KT CAVOK
      
TAF EGXW 131024Z 1312/1406 08010KT CAVOK
      
TAF EGYD 131036Z 1312/1318 07010KT CAVOK
      
TAF EGYP 130726Z 1309/1403 32020G35KT 9999 SCT020 
      BECMG 1309/1312 28020KT SCT030 PROB40 
      TEMPO 1309/1316 5000 -SHRA SCT014 PROB40 
      TEMPO 1312/1318 28022G32KT 
      BECMG 1318/1321 32012KT PROB30 
      TEMPO 1318/1321 31015G25KT PROB30 
      TEMPO 1321/1324 36018G28KT 
      BECMG 1400/1403 02015G30KT
      

About You

Log In Register UKGA membership

Airfields

Interactive airfield map Search by name Search by postcode Search by location Fuel prices Pilot reviews Latest
(No favourites selected)

Flight planning

Flight planning New flightplan NOTAM map LARS map & NOTAMs Danger area, mil. & TRA activations Weather map GPS route download Find waypoints Your waypoints New waypoint

Forums

Forums Currently discussing "ukga adverts"

Other items

Articles Events Links News Surveys Tips Other users Feedback UKGA membership About UKGA